Terminal Aerodrome Forecast
Issued by NWS

Home | Current Version | Previous Version | Text Only | Print | Product List | Glossary On
Versions: 1 2 3 4 5 6 7 8 9 10 11 12 13 14
000
FTUS45 KTFX 200500
TAFBZN
TAF
KBZN 200539Z 2006/2106 15004KT P6SM VCSH SCT030 OVC050
      TEMPO 2006/2008 4SM -SHSN OVC030
     FM201100 VRB04KT P6SM VCSH BKN050
     FM201900 22006KT P6SM BKN100
     FM210200 18005KT P6SM OVC070=

USA.gov is the U.S. government's official web portal to all federal, state and local government web resources and services.